sensor_id;sensor_type;location;lat;lon;timestamp;P1;durP1;ratioP1;P2;durP2;ratioP2
73100;SDS011;61288;53.446;-2.266;2024-02-26T00:01:40;8.20;;;3.50;;
73100;SDS011;61288;53.446;-2.266;2024-02-26T00:04:09;9.27;;;3.10;;
73100;SDS011;61288;53.446;-2.266;2024-02-26T00:06:35;10.18;;;3.58;;
73100;SDS011;61288;53.446;-2.266;2024-02-26T00:09:01;10.15;;;3.47;;
73100;SDS011;61288;53.446;-2.266;2024-02-26T00:11:31;10.95;;;3.60;;
73100;SDS011;61288;53.446;-2.266;2024-02-26T00:13:56;11.07;;;3.17;;
73100;SDS011;61288;53.446;-2.266;2024-02-26T00:16:23;14.70;;;2.92;;
73100;SDS011;61288;53.446;-2.266;2024-02-26T00:18:48;8.52;;;3.45;;
73100;SDS011;61288;53.446;-2.266;2024-02-26T00:21:15;12.73;;;3.63;;
73100;SDS011;61288;53.446;-2.266;2024-02-26T00:23:40;9.07;;;3.10;;
73100;SDS011;61288;53.446;-2.266;2024-02-26T00:26:06;7.35;;;3.00;;
73100;SDS011;61288;53.446;-2.266;2024-02-26T00:28:32;11.70;;;3.17;;
73100;SDS011;61288;53.446;-2.266;2024-02-26T00:33:33;9.45;;;3.38;;
73100;SDS011;61288;53.446;-2.266;2024-02-26T00:35:59;8.30;;;3.00;;
73100;SDS011;61288;53.446;-2.266;2024-02-26T00:38:24;8.55;;;3.15;;
73100;SDS011;61288;53.446;-2.266;2024-02-26T00:40:50;12.45;;;2.80;;
73100;SDS011;61288;53.446;-2.266;2024-02-26T00:43:15;10.93;;;2.40;;
73100;SDS011;61288;53.446;-2.266;2024-02-26T00:45:41;9.38;;;3.45;;
73100;SDS011;61288;53.446;-2.266;2024-02-26T00:48:06;8.48;;;3.20;;
73100;SDS011;61288;53.446;-2.266;2024-02-26T00:50:32;8.13;;;3.15;;
73100;SDS011;61288;53.446;-2.266;2024-02-26T00:52:59;11.00;;;3.38;;
73100;SDS011;61288;53.446;-2.266;2024-02-26T00:55:25;9.43;;;3.42;;
73100;SDS011;61288;53.446;-2.266;2024-02-26T00:57:51;11.43;;;3.20;;
73100;SDS011;61288;53.446;-2.266;2024-02-26T01:00:18;10.77;;;3.67;;
73100;SDS011;61288;53.446;-2.266;2024-02-26T01:02:43;12.55;;;3.10;;
73100;SDS011;61288;53.446;-2.266;2024-02-26T01:05:11;8.88;;;2.92;;
73100;SDS011;61288;53.446;-2.266;2024-02-26T01:07:37;10.00;;;2.90;;
73100;SDS011;61288;53.446;-2.266;2024-02-26T01:10:04;10.25;;;3.03;;
73100;SDS011;61288;53.446;-2.266;2024-02-26T01:12:31;8.05;;;2.90;;
73100;SDS011;61288;53.446;-2.266;2024-02-26T01:15:00;10.48;;;2.90;;
73100;SDS011;61288;53.446;-2.266;2024-02-26T01:17:28;11.73;;;3.03;;
73100;SDS011;61288;53.446;-2.266;2024-02-26T01:19:53;12.52;;;3.60;;
73100;SDS011;61288;53.446;-2.266;2024-02-26T01:22:19;8.30;;;3.10;;
73100;SDS011;61288;53.446;-2.266;2024-02-26T01:24:46;9.27;;;2.78;;
73100;SDS011;61288;53.446;-2.266;2024-02-26T01:27:13;9.13;;;3.15;;
73100;SDS011;61288;53.446;-2.266;2024-02-26T01:29:41;10.82;;;3.03;;
73100;SDS011;61288;53.446;-2.266;2024-02-26T01:32:07;11.60;;;3.60;;
73100;SDS011;61288;53.446;-2.266;2024-02-26T01:34:33;9.75;;;2.97;;
73100;SDS011;61288;53.446;-2.266;2024-02-26T01:36:58;9.00;;;2.85;;
73100;SDS011;61288;53.446;-2.266;2024-02-26T01:39:24;11.95;;;2.97;;
73100;SDS011;61288;53.446;-2.266;2024-02-26T01:41:49;10.63;;;2.78;;
73100;SDS011;61288;53.446;-2.266;2024-02-26T01:44:15;10.40;;;3.10;;
73100;SDS011;61288;53.446;-2.266;2024-02-26T01:46:40;9.40;;;3.15;;
73100;SDS011;61288;53.446;-2.266;2024-02-26T01:49:07;11.18;;;3.40;;
73100;SDS011;61288;53.446;-2.266;2024-02-26T01:51:37;13.00;;;3.33;;
73100;SDS011;61288;53.446;-2.266;2024-02-26T01:54:04;9.25;;;2.80;;
73100;SDS011;61288;53.446;-2.266;2024-02-26T01:56:32;10.07;;;2.58;;
73100;SDS011;61288;53.446;-2.266;2024-02-26T01:59:00;9.07;;;2.95;;
73100;SDS011;61288;53.446;-2.266;2024-02-26T02:01:27;8.82;;;2.90;;
73100;SDS011;61288;53.446;-2.266;2024-02-26T02:03:55;9.98;;;3.03;;
73100;SDS011;61288;53.446;-2.266;2024-02-26T02:06:23;6.07;;;2.60;;
73100;SDS011;61288;53.446;-2.266;2024-02-26T02:08:49;8.00;;;2.33;;
73100;SDS011;61288;53.446;-2.266;2024-02-26T02:11:16;9.25;;;3.20;;
73100;SDS011;61288;53.446;-2.266;2024-02-26T02:13:42;10.60;;;3.40;;
73100;SDS011;61288;53.446;-2.266;2024-02-26T02:16:08;14.20;;;3.10;;
73100;SDS011;61288;53.446;-2.266;2024-02-26T02:18:34;9.73;;;2.83;;
73100;SDS011;61288;53.446;-2.266;2024-02-26T02:21:00;6.68;;;2.72;;
73100;SDS011;61288;53.446;-2.266;2024-02-26T02:23:25;9.90;;;3.53;;
73100;SDS011;61288;53.446;-2.266;2024-02-26T02:25:51;10.52;;;3.15;;
73100;SDS011;61288;53.446;-2.266;2024-02-26T02:28:18;7.68;;;2.60;;
73100;SDS011;61288;53.446;-2.266;2024-02-26T02:30:44;11.45;;;2.88;;
73100;SDS011;61288;53.446;-2.266;2024-02-26T02:33:10;7.93;;;2.92;;
73100;SDS011;61288;53.446;-2.266;2024-02-26T02:35:37;13.25;;;2.85;;
73100;SDS011;61288;53.446;-2.266;2024-02-26T02:38:03;9.90;;;2.83;;
73100;SDS011;61288;53.446;-2.266;2024-02-26T02:40:29;8.02;;;2.42;;
73100;SDS011;61288;53.446;-2.266;2024-02-26T02:42:54;9.02;;;2.55;;
73100;SDS011;61288;53.446;-2.266;2024-02-26T02:45:23;10.65;;;3.42;;
73100;SDS011;61288;53.446;-2.266;2024-02-26T02:47:49;8.90;;;2.80;;
73100;SDS011;61288;53.446;-2.266;2024-02-26T02:50:15;7.70;;;2.33;;
73100;SDS011;61288;53.446;-2.266;2024-02-26T02:52:41;10.93;;;2.53;;
73100;SDS011;61288;53.446;-2.266;2024-02-26T02:55:07;7.18;;;2.80;;
73100;SDS011;61288;53.446;-2.266;2024-02-26T02:57:33;8.40;;;2.90;;
73100;SDS011;61288;53.446;-2.266;2024-02-26T02:59:58;9.43;;;2.80;;
73100;SDS011;61288;53.446;-2.266;2024-02-26T03:02:24;11.20;;;2.90;;
73100;SDS011;61288;53.446;-2.266;2024-02-26T03:04:50;7.45;;;3.13;;
73100;SDS011;61288;53.446;-2.266;2024-02-26T03:07:17;10.63;;;2.90;;
73100;SDS011;61288;53.446;-2.266;2024-02-26T03:09:42;8.10;;;2.67;;
73100;SDS011;61288;53.446;-2.266;2024-02-26T03:12:08;11.82;;;2.95;;
73100;SDS011;61288;53.446;-2.266;2024-02-26T03:14:34;7.53;;;2.33;;
73100;SDS011;61288;53.446;-2.266;2024-02-26T03:16:59;7.57;;;2.88;;
73100;SDS011;61288;53.446;-2.266;2024-02-26T03:19:25;10.63;;;2.63;;
73100;SDS011;61288;53.446;-2.266;2024-02-26T03:21:51;7.47;;;2.67;;
73100;SDS011;61288;53.446;-2.266;2024-02-26T03:24:16;10.45;;;3.08;;
73100;SDS011;61288;53.446;-2.266;2024-02-26T03:26:42;10.55;;;3.05;;
73100;SDS011;61288;53.446;-2.266;2024-02-26T03:29:08;13.65;;;3.38;;
73100;SDS011;61288;53.446;-2.266;2024-02-26T03:31:33;8.55;;;2.58;;
73100;SDS011;61288;53.446;-2.266;2024-02-26T03:33:59;9.60;;;3.13;;
73100;SDS011;61288;53.446;-2.266;2024-02-26T03:36:24;7.85;;;2.47;;
73100;SDS011;61288;53.446;-2.266;2024-02-26T03:38:50;8.85;;;2.83;;
73100;SDS011;61288;53.446;-2.266;2024-02-26T03:41:16;15.13;;;3.42;;
73100;SDS011;61288;53.446;-2.266;2024-02-26T03:43:41;12.65;;;2.88;;
73100;SDS011;61288;53.446;-2.266;2024-02-26T03:46:07;6.75;;;2.75;;
73100;SDS011;61288;53.446;-2.266;2024-02-26T03:48:34;7.30;;;2.58;;
73100;SDS011;61288;53.446;-2.266;2024-02-26T03:51:00;9.13;;;2.72;;
73100;SDS011;61288;53.446;-2.266;2024-02-26T03:53:25;10.40;;;3.00;;
73100;SDS011;61288;53.446;-2.266;2024-02-26T03:55:51;6.68;;;2.60;;
73100;SDS011;61288;53.446;-2.266;2024-02-26T03:58:17;12.25;;;2.63;;
73100;SDS011;61288;53.446;-2.266;2024-02-26T04:00:43;7.53;;;2.20;;
73100;SDS011;61288;53.446;-2.266;2024-02-26T04:03:09;12.10;;;3.38;;
73100;SDS011;61288;53.446;-2.266;2024-02-26T04:05:35;6.95;;;2.72;;
73100;SDS011;61288;53.446;-2.266;2024-02-26T04:08:00;7.07;;;2.40;;
73100;SDS011;61288;53.446;-2.266;2024-02-26T04:10:26;8.15;;;2.95;;
73100;SDS011;61288;53.446;-2.266;2024-02-26T04:12:51;7.25;;;2.70;;
73100;SDS011;61288;53.446;-2.266;2024-02-26T04:15:17;10.38;;;3.00;;
73100;SDS011;61288;53.446;-2.266;2024-02-26T04:17:43;7.75;;;2.67;;
73100;SDS011;61288;53.446;-2.266;2024-02-26T04:20:12;11.73;;;3.10;;
73100;SDS011;61288;53.446;-2.266;2024-02-26T04:22:39;8.95;;;3.30;;
73100;SDS011;61288;53.446;-2.266;2024-02-26T04:25:05;7.90;;;3.05;;
73100;SDS011;61288;53.446;-2.266;2024-02-26T04:27:31;10.93;;;3.25;;
73100;SDS011;61288;53.446;-2.266;2024-02-26T04:29:57;11.18;;;2.95;;
73100;SDS011;61288;53.446;-2.266;2024-02-26T04:32:22;10.65;;;3.40;;
73100;SDS011;61288;53.446;-2.266;2024-02-26T04:34:48;7.95;;;2.78;;
73100;SDS011;61288;53.446;-2.266;2024-02-26T04:37:13;11.40;;;2.97;;
73100;SDS011;61288;53.446;-2.266;2024-02-26T04:39:38;8.70;;;3.03;;
73100;SDS011;61288;53.446;-2.266;2024-02-26T04:42:04;8.68;;;2.95;;
73100;SDS011;61288;53.446;-2.266;2024-02-26T04:44:29;9.07;;;3.17;;
73100;SDS011;61288;53.446;-2.266;2024-02-26T04:46:55;8.45;;;2.90;;
73100;SDS011;61288;53.446;-2.266;2024-02-26T04:49:21;10.73;;;3.00;;
73100;SDS011;61288;53.446;-2.266;2024-02-26T04:51:47;12.68;;;3.33;;
73100;SDS011;61288;53.446;-2.266;2024-02-26T04:54:13;8.05;;;3.08;;
73100;SDS011;61288;53.446;-2.266;2024-02-26T04:56:38;6.60;;;2.90;;
73100;SDS011;61288;53.446;-2.266;2024-02-26T04:59:04;9.77;;;3.65;;
73100;SDS011;61288;53.446;-2.266;2024-02-26T05:01:29;10.77;;;3.30;;
73100;SDS011;61288;53.446;-2.266;2024-02-26T05:03:55;11.65;;;3.40;;
73100;SDS011;61288;53.446;-2.266;2024-02-26T05:06:20;8.35;;;3.03;;
73100;SDS011;61288;53.446;-2.266;2024-02-26T05:08:46;8.82;;;3.08;;
73100;SDS011;61288;53.446;-2.266;2024-02-26T05:11:11;11.13;;;3.08;;
73100;SDS011;61288;53.446;-2.266;2024-02-26T05:13:37;9.80;;;2.97;;
73100;SDS011;61288;53.446;-2.266;2024-02-26T05:16:04;10.23;;;3.47;;
73100;SDS011;61288;53.446;-2.266;2024-02-26T05:18:29;8.15;;;2.92;;
73100;SDS011;61288;53.446;-2.266;2024-02-26T05:20:55;9.20;;;2.70;;
73100;SDS011;61288;53.446;-2.266;2024-02-26T05:23:20;8.15;;;2.67;;
73100;SDS011;61288;53.446;-2.266;2024-02-26T05:25:45;7.97;;;3.05;;
73100;SDS011;61288;53.446;-2.266;2024-02-26T05:28:13;9.55;;;2.67;;
73100;SDS011;61288;53.446;-2.266;2024-02-26T05:30:40;9.82;;;2.80;;
73100;SDS011;61288;53.446;-2.266;2024-02-26T05:33:07;7.05;;;2.63;;
73100;SDS011;61288;53.446;-2.266;2024-02-26T05:35:32;6.63;;;2.40;;
73100;SDS011;61288;53.446;-2.266;2024-02-26T05:37:58;5.45;;;2.25;;
73100;SDS011;61288;53.446;-2.266;2024-02-26T05:40:24;11.40;;;2.40;;
73100;SDS011;61288;53.446;-2.266;2024-02-26T05:42:49;6.25;;;2.10;;
73100;SDS011;61288;53.446;-2.266;2024-02-26T05:45:15;5.90;;;1.80;;
73100;SDS011;61288;53.446;-2.266;2024-02-26T05:47:42;5.00;;;1.60;;
73100;SDS011;61288;53.446;-2.266;2024-02-26T05:50:10;3.13;;;1.55;;
73100;SDS011;61288;53.446;-2.266;2024-02-26T05:52:37;4.93;;;1.85;;
73100;SDS011;61288;53.446;-2.266;2024-02-26T05:55:04;3.28;;;1.50;;
73100;SDS011;61288;53.446;-2.266;2024-02-26T05:57:30;8.02;;;1.50;;
73100;SDS011;61288;53.446;-2.266;2024-02-26T05:59:56;7.00;;;1.80;;
73100;SDS011;61288;53.446;-2.266;2024-02-26T06:02:22;3.78;;;1.50;;
73100;SDS011;61288;53.446;-2.266;2024-02-26T06:04:48;5.43;;;1.80;;
73100;SDS011;61288;53.446;-2.266;2024-02-26T06:07:13;2.90;;;1.50;;
73100;SDS011;61288;53.446;-2.266;2024-02-26T06:09:39;4.95;;;1.65;;
73100;SDS011;61288;53.446;-2.266;2024-02-26T06:12:05;3.13;;;1.65;;
73100;SDS011;61288;53.446;-2.266;2024-02-26T06:14:31;5.78;;;1.83;;
73100;SDS011;61288;53.446;-2.266;2024-02-26T06:16:57;5.35;;;1.77;;
73100;SDS011;61288;53.446;-2.266;2024-02-26T06:19:22;5.88;;;1.50;;
73100;SDS011;61288;53.446;-2.266;2024-02-26T06:21:47;3.90;;;1.55;;
73100;SDS011;61288;53.446;-2.266;2024-02-26T06:24:13;2.95;;;1.60;;
73100;SDS011;61288;53.446;-2.266;2024-02-26T06:26:39;3.50;;;1.48;;
73100;SDS011;61288;53.446;-2.266;2024-02-26T06:29:04;5.85;;;1.75;;
73100;SDS011;61288;53.446;-2.266;2024-02-26T06:31:29;6.03;;;1.85;;
73100;SDS011;61288;53.446;-2.266;2024-02-26T06:33:55;4.80;;;1.73;;
73100;SDS011;61288;53.446;-2.266;2024-02-26T06:36:21;5.03;;;1.88;;
73100;SDS011;61288;53.446;-2.266;2024-02-26T06:38:47;5.50;;;1.70;;
73100;SDS011;61288;53.446;-2.266;2024-02-26T06:41:14;4.72;;;1.80;;
73100;SDS011;61288;53.446;-2.266;2024-02-26T06:43:40;7.30;;;2.20;;
73100;SDS011;61288;53.446;-2.266;2024-02-26T06:46:05;5.85;;;1.95;;
73100;SDS011;61288;53.446;-2.266;2024-02-26T06:48:31;6.97;;;2.08;;
73100;SDS011;61288;53.446;-2.266;2024-02-26T06:50:57;5.00;;;1.45;;
73100;SDS011;61288;53.446;-2.266;2024-02-26T06:53:22;5.90;;;2.15;;
73100;SDS011;61288;53.446;-2.266;2024-02-26T06:55:48;5.90;;;1.90;;
73100;SDS011;61288;53.446;-2.266;2024-02-26T06:58:15;8.85;;;1.90;;
73100;SDS011;61288;53.446;-2.266;2024-02-26T07:00:41;8.77;;;2.22;;
73100;SDS011;61288;53.446;-2.266;2024-02-26T07:03:07;4.32;;;1.63;;
73100;SDS011;61288;53.446;-2.266;2024-02-26T07:05:35;7.03;;;2.30;;
73100;SDS011;61288;53.446;-2.266;2024-02-26T07:08:01;7.10;;;2.00;;
73100;SDS011;61288;53.446;-2.266;2024-02-26T07:10:26;7.40;;;2.63;;
73100;SDS011;61288;53.446;-2.266;2024-02-26T07:12:52;5.78;;;1.98;;
73100;SDS011;61288;53.446;-2.266;2024-02-26T07:15:17;5.57;;;2.40;;
73100;SDS011;61288;53.446;-2.266;2024-02-26T07:17:43;4.95;;;2.05;;
73100;SDS011;61288;53.446;-2.266;2024-02-26T07:20:12;4.63;;;1.77;;
73100;SDS011;61288;53.446;-2.266;2024-02-26T07:22:39;5.82;;;2.10;;
73100;SDS011;61288;53.446;-2.266;2024-02-26T07:25:04;6.13;;;2.13;;
73100;SDS011;61288;53.446;-2.266;2024-02-26T07:27:33;7.05;;;2.20;;
73100;SDS011;61288;53.446;-2.266;2024-02-26T07:29:59;7.70;;;2.42;;
73100;SDS011;61288;53.446;-2.266;2024-02-26T07:32:24;5.18;;;2.00;;
73100;SDS011;61288;53.446;-2.266;2024-02-26T07:34:50;9.18;;;2.63;;
73100;SDS011;61288;53.446;-2.266;2024-02-26T07:37:15;5.05;;;1.50;;
73100;SDS011;61288;53.446;-2.266;2024-02-26T07:39:42;7.72;;;1.95;;
73100;SDS011;61288;53.446;-2.266;2024-02-26T07:42:07;8.23;;;2.00;;
73100;SDS011;61288;53.446;-2.266;2024-02-26T07:44:33;6.78;;;2.00;;
73100;SDS011;61288;53.446;-2.266;2024-02-26T07:47:00;4.95;;;1.75;;
73100;SDS011;61288;53.446;-2.266;2024-02-26T07:49:26;4.88;;;1.77;;
73100;SDS011;61288;53.446;-2.266;2024-02-26T07:51:51;4.45;;;1.90;;
73100;SDS011;61288;53.446;-2.266;2024-02-26T07:54:17;7.72;;;2.42;;
73100;SDS011;61288;53.446;-2.266;2024-02-26T07:56:44;6.32;;;1.92;;
73100;SDS011;61288;53.446;-2.266;2024-02-26T07:59:10;3.80;;;1.50;;
73100;SDS011;61288;53.446;-2.266;2024-02-26T08:01:35;5.60;;;1.52;;
73100;SDS011;61288;53.446;-2.266;2024-02-26T08:04:04;4.88;;;1.65;;
73100;SDS011;61288;53.446;-2.266;2024-02-26T08:06:30;5.18;;;1.60;;
73100;SDS011;61288;53.446;-2.266;2024-02-26T08:08:56;4.38;;;1.60;;
73100;SDS011;61288;53.446;-2.266;2024-02-26T08:11:22;2.83;;;1.35;;
73100;SDS011;61288;53.446;-2.266;2024-02-26T08:13:47;6.28;;;1.67;;
73100;SDS011;61288;53.446;-2.266;2024-02-26T08:16:13;7.28;;;1.60;;
73100;SDS011;61288;53.446;-2.266;2024-02-26T08:18:38;5.40;;;1.50;;
73100;SDS011;61288;53.446;-2.266;2024-02-26T08:21:04;5.75;;;1.85;;
73100;SDS011;61288;53.446;-2.266;2024-02-26T08:23:30;4.72;;;1.60;;
73100;SDS011;61288;53.446;-2.266;2024-02-26T08:25:56;5.00;;;1.58;;
73100;SDS011;61288;53.446;-2.266;2024-02-26T08:28:21;5.63;;;1.70;;
73100;SDS011;61288;53.446;-2.266;2024-02-26T08:30:47;4.13;;;1.50;;
73100;SDS011;61288;53.446;-2.266;2024-02-26T08:33:13;4.70;;;1.45;;
73100;SDS011;61288;53.446;-2.266;2024-02-26T08:35:38;6.78;;;1.75;;
73100;SDS011;61288;53.446;-2.266;2024-02-26T08:38:04;7.57;;;1.67;;
73100;SDS011;61288;53.446;-2.266;2024-02-26T08:40:29;5.07;;;1.33;;
73100;SDS011;61288;53.446;-2.266;2024-02-26T08:42:55;4.07;;;1.20;;
73100;SDS011;61288;53.446;-2.266;2024-02-26T08:45:20;1.67;;;0.82;;
73100;SDS011;61288;53.446;-2.266;2024-02-26T08:47:46;4.72;;;1.10;;
73100;SDS011;61288;53.446;-2.266;2024-02-26T08:50:12;3.25;;;1.13;;
73100;SDS011;61288;53.446;-2.266;2024-02-26T08:52:39;2.60;;;1.10;;
73100;SDS011;61288;53.446;-2.266;2024-02-26T08:55:05;2.10;;;1.08;;
73100;SDS011;61288;53.446;-2.266;2024-02-26T08:57:33;5.57;;;1.30;;
73100;SDS011;61288;53.446;-2.266;2024-02-26T09:00:00;3.70;;;1.10;;
73100;SDS011;61288;53.446;-2.266;2024-02-26T09:02:26;2.70;;;1.35;;
73100;SDS011;61288;53.446;-2.266;2024-02-26T09:04:51;4.28;;;1.05;;
73100;SDS011;61288;53.446;-2.266;2024-02-26T09:07:19;2.90;;;1.10;;
73100;SDS011;61288;53.446;-2.266;2024-02-26T09:09:45;2.63;;;1.20;;
73100;SDS011;61288;53.446;-2.266;2024-02-26T09:12:10;3.40;;;1.42;;
73100;SDS011;61288;53.446;-2.266;2024-02-26T09:14:36;2.20;;;0.98;;
73100;SDS011;61288;53.446;-2.266;2024-02-26T09:17:01;3.33;;;1.30;;
73100;SDS011;61288;53.446;-2.266;2024-02-26T09:19:27;2.72;;;1.10;;
73100;SDS011;61288;53.446;-2.266;2024-02-26T09:21:52;2.22;;;1.00;;
73100;SDS011;61288;53.446;-2.266;2024-02-26T09:24:22;3.45;;;1.40;;
73100;SDS011;61288;53.446;-2.266;2024-02-26T09:26:48;2.90;;;1.45;;
73100;SDS011;61288;53.446;-2.266;2024-02-26T09:29:14;3.60;;;1.20;;
73100;SDS011;61288;53.446;-2.266;2024-02-26T09:31:39;3.15;;;1.20;;
73100;SDS011;61288;53.446;-2.266;2024-02-26T09:34:09;4.88;;;1.38;;
73100;SDS011;61288;53.446;-2.266;2024-02-26T09:36:34;3.33;;;1.38;;
73100;SDS011;61288;53.446;-2.266;2024-02-26T09:39:00;4.68;;;1.60;;
73100;SDS011;61288;53.446;-2.266;2024-02-26T09:41:27;3.05;;;1.30;;
73100;SDS011;61288;53.446;-2.266;2024-02-26T09:43:58;2.47;;;1.70;;
73100;SDS011;61288;53.446;-2.266;2024-02-26T09:46:25;2.67;;;1.45;;
73100;SDS011;61288;53.446;-2.266;2024-02-26T09:48:50;3.60;;;1.40;;
73100;SDS011;61288;53.446;-2.266;2024-02-26T09:51:16;5.25;;;1.00;;
73100;SDS011;61288;53.446;-2.266;2024-02-26T09:53:43;2.78;;;1.23;;
73100;SDS011;61288;53.446;-2.266;2024-02-26T09:56:13;1.42;;;1.00;;
73100;SDS011;61288;53.446;-2.266;2024-02-26T09:58:40;5.00;;;1.23;;
73100;SDS011;61288;53.446;-2.266;2024-02-26T10:01:10;3.33;;;1.10;;
73100;SDS011;61288;53.446;-2.266;2024-02-26T10:03:39;3.15;;;1.27;;
73100;SDS011;61288;53.446;-2.266;2024-02-26T10:06:07;7.05;;;1.20;;
73100;SDS011;61288;53.446;-2.266;2024-02-26T10:08:34;5.28;;;1.10;;
73100;SDS011;61288;53.446;-2.266;2024-02-26T10:11:02;2.70;;;0.90;;
73100;SDS011;61288;53.446;-2.266;2024-02-26T10:13:31;4.55;;;1.83;;
73100;SDS011;61288;53.446;-2.266;2024-02-26T10:15:57;7.72;;;1.27;;
73100;SDS011;61288;53.446;-2.266;2024-02-26T10:18:24;6.50;;;0.90;;
73100;SDS011;61288;53.446;-2.266;2024-02-26T10:20:58;5.57;;;1.10;;
73100;SDS011;61288;53.446;-2.266;2024-02-26T10:23:26;4.03;;;1.00;;
73100;SDS011;61288;53.446;-2.266;2024-02-26T10:25:55;3.72;;;0.55;;
73100;SDS011;61288;53.446;-2.266;2024-02-26T10:28:22;2.17;;;1.27;;
73100;SDS011;61288;53.446;-2.266;2024-02-26T10:30:48;6.28;;;1.13;;
73100;SDS011;61288;53.446;-2.266;2024-02-26T10:33:14;4.18;;;1.20;;
73100;SDS011;61288;53.446;-2.266;2024-02-26T10:35:40;4.22;;;1.17;;
73100;SDS011;61288;53.446;-2.266;2024-02-26T10:38:10;3.95;;;1.00;;
73100;SDS011;61288;53.446;-2.266;2024-02-26T10:40:36;4.25;;;1.15;;
73100;SDS011;61288;53.446;-2.266;2024-02-26T10:43:02;4.22;;;1.17;;
73100;SDS011;61288;53.446;-2.266;2024-02-26T10:45:28;4.15;;;1.00;;
73100;SDS011;61288;53.446;-2.266;2024-02-26T10:47:54;4.65;;;1.20;;
73100;SDS011;61288;53.446;-2.266;2024-02-26T10:50:19;3.47;;;1.08;;
73100;SDS011;61288;53.446;-2.266;2024-02-26T10:52:45;4.32;;;0.98;;
73100;SDS011;61288;53.446;-2.266;2024-02-26T10:55:20;3.72;;;1.00;;
73100;SDS011;61288;53.446;-2.266;2024-02-26T10:57:47;2.25;;;1.17;;
73100;SDS011;61288;53.446;-2.266;2024-02-26T11:00:15;4.07;;;1.10;;
73100;SDS011;61288;53.446;-2.266;2024-02-26T11:02:41;1.10;;;1.00;;
73100;SDS011;61288;53.446;-2.266;2024-02-26T11:05:09;2.38;;;1.02;;
73100;SDS011;61288;53.446;-2.266;2024-02-26T11:07:36;3.75;;;1.05;;
73100;SDS011;61288;53.446;-2.266;2024-02-26T11:10:06;2.03;;;1.00;;
73100;SDS011;61288;53.446;-2.266;2024-02-26T11:12:32;3.17;;;1.00;;
73100;SDS011;61288;53.446;-2.266;2024-02-26T11:15:02;0.80;;;0.75;;
73100;SDS011;61288;53.446;-2.266;2024-02-26T11:17:29;3.13;;;1.10;;
73100;SDS011;61288;53.446;-2.266;2024-02-26T11:19:58;2.83;;;1.20;;
73100;SDS011;61288;53.446;-2.266;2024-02-26T11:22:25;2.58;;;0.90;;
73100;SDS011;61288;53.446;-2.266;2024-02-26T11:24:54;2.92;;;0.90;;
73100;SDS011;61288;53.446;-2.266;2024-02-26T11:27:26;1.70;;;0.85;;
73100;SDS011;61288;53.446;-2.266;2024-02-26T11:29:57;1.85;;;0.85;;
73100;SDS011;61288;53.446;-2.266;2024-02-26T11:32:26;3.78;;;1.10;;
73100;SDS011;61288;53.446;-2.266;2024-02-26T11:34:55;2.30;;;1.00;;
73100;SDS011;61288;53.446;-2.266;2024-02-26T11:37:24;2.38;;;0.70;;
73100;SDS011;61288;53.446;-2.266;2024-02-26T11:39:51;4.50;;;0.95;;
73100;SDS011;61288;53.446;-2.266;2024-02-26T11:42:17;1.55;;;0.50;;
73100;SDS011;61288;53.446;-2.266;2024-02-26T11:44:48;2.17;;;0.85;;
73100;SDS011;61288;53.446;-2.266;2024-02-26T11:47:18;1.42;;;0.90;;
73100;SDS011;61288;53.446;-2.266;2024-02-26T11:49:46;4.35;;;0.93;;
73100;SDS011;61288;53.446;-2.266;2024-02-26T11:52:13;2.88;;;0.70;;
73100;SDS011;61288;53.446;-2.266;2024-02-26T11:54:47;2.30;;;0.98;;
73100;SDS011;61288;53.446;-2.266;2024-02-26T11:59:49;3.38;;;0.95;;
73100;SDS011;61288;53.446;-2.266;2024-02-26T12:07:55;3.08;;;1.00;;
73100;SDS011;61288;53.446;-2.266;2024-02-26T12:10:30;2.67;;;0.80;;
73100;SDS011;61288;53.446;-2.266;2024-02-26T12:13:04;1.73;;;0.68;;
73100;SDS011;61288;53.446;-2.266;2024-02-26T12:15:33;1.25;;;0.80;;
73100;SDS011;61288;53.446;-2.266;2024-02-26T12:18:04;1.55;;;0.60;;
73100;SDS011;61288;53.446;-2.266;2024-02-26T12:20:31;1.90;;;0.82;;
73100;SDS011;61288;53.446;-2.266;2024-02-26T12:22:57;1.50;;;0.82;;
73100;SDS011;61288;53.446;-2.266;2024-02-26T12:25:24;2.38;;;0.95;;
73100;SDS011;61288;53.446;-2.266;2024-02-26T12:30:19;2.15;;;0.80;;
73100;SDS011;61288;53.446;-2.266;2024-02-26T12:32:48;1.65;;;0.80;;
73100;SDS011;61288;53.446;-2.266;2024-02-26T12:35:16;3.05;;;1.38;;
73100;SDS011;61288;53.446;-2.266;2024-02-26T12:37:42;2.83;;;1.10;;
73100;SDS011;61288;53.446;-2.266;2024-02-26T12:40:08;0.85;;;0.60;;
73100;SDS011;61288;53.446;-2.266;2024-02-26T12:42:35;4.75;;;1.20;;
73100;SDS011;61288;53.446;-2.266;2024-02-26T12:45:09;1.27;;;1.00;;
73100;SDS011;61288;53.446;-2.266;2024-02-26T12:47:40;2.08;;;1.20;;
73100;SDS011;61288;53.446;-2.266;2024-02-26T12:52:33;4.10;;;1.10;;
73100;SDS011;61288;53.446;-2.266;2024-02-26T12:55:06;2.78;;;1.20;;
73100;SDS011;61288;53.446;-2.266;2024-02-26T12:57:37;2.03;;;0.88;;
73100;SDS011;61288;53.446;-2.266;2024-02-26T13:00:06;1.48;;;0.88;;
73100;SDS011;61288;53.446;-2.266;2024-02-26T13:02:35;2.80;;;0.80;;
73100;SDS011;61288;53.446;-2.266;2024-02-26T13:05:03;1.88;;;0.50;;
73100;SDS011;61288;53.446;-2.266;2024-02-26T13:07:33;2.90;;;1.02;;
73100;SDS011;61288;53.446;-2.266;2024-02-26T13:09:59;0.68;;;0.68;;
73100;SDS011;61288;53.446;-2.266;2024-02-26T13:12:25;1.58;;;0.70;;
73100;SDS011;61288;53.446;-2.266;2024-02-26T13:15:00;0.95;;;0.73;;
73100;SDS011;61288;53.446;-2.266;2024-02-26T13:17:27;4.03;;;0.90;;
73100;SDS011;61288;53.446;-2.266;2024-02-26T13:19:57;2.08;;;0.90;;
73100;SDS011;61288;53.446;-2.266;2024-02-26T13:22:23;1.35;;;0.80;;
73100;SDS011;61288;53.446;-2.266;2024-02-26T13:24:55;1.08;;;0.93;;
73100;SDS011;61288;53.446;-2.266;2024-02-26T13:27:22;1.45;;;0.90;;
73100;SDS011;61288;53.446;-2.266;2024-02-26T13:29:49;1.92;;;0.75;;
73100;SDS011;61288;53.446;-2.266;2024-02-26T13:32:27;1.35;;;0.90;;
73100;SDS011;61288;53.446;-2.266;2024-02-26T13:35:03;1.40;;;0.65;;
73100;SDS011;61288;53.446;-2.266;2024-02-26T13:37:34;1.73;;;0.80;;
73100;SDS011;61288;53.446;-2.266;2024-02-26T13:40:00;0.88;;;0.88;;
73100;SDS011;61288;53.446;-2.266;2024-02-26T13:42:29;1.10;;;0.80;;
73100;SDS011;61288;53.446;-2.266;2024-02-26T13:44:56;1.38;;;0.85;;
73100;SDS011;61288;53.446;-2.266;2024-02-26T13:47:22;2.40;;;0.95;;
73100;SDS011;61288;53.446;-2.266;2024-02-26T13:49:47;3.38;;;1.15;;
73100;SDS011;61288;53.446;-2.266;2024-02-26T13:52:13;1.70;;;1.10;;
73100;SDS011;61288;53.446;-2.266;2024-02-26T13:54:39;2.17;;;0.90;;
73100;SDS011;61288;53.446;-2.266;2024-02-26T13:57:05;1.17;;;0.80;;
73100;SDS011;61288;53.446;-2.266;2024-02-26T13:59:31;1.05;;;0.47;;
73100;SDS011;61288;53.446;-2.266;2024-02-26T14:01:56;2.92;;;0.90;;
73100;SDS011;61288;53.446;-2.266;2024-02-26T14:04:22;3.97;;;1.10;;
73100;SDS011;61288;53.446;-2.266;2024-02-26T14:06:47;2.92;;;0.95;;
73100;SDS011;61288;53.446;-2.266;2024-02-26T14:09:13;0.75;;;0.52;;
73100;SDS011;61288;53.446;-2.266;2024-02-26T14:11:44;0.80;;;0.80;;
73100;SDS011;61288;53.446;-2.266;2024-02-26T14:14:10;1.42;;;0.88;;
73100;SDS011;61288;53.446;-2.266;2024-02-26T14:16:36;4.15;;;1.00;;
73100;SDS011;61288;53.446;-2.266;2024-02-26T14:19:02;1.10;;;0.95;;
73100;SDS011;61288;53.446;-2.266;2024-02-26T14:21:28;2.65;;;1.00;;
73100;SDS011;61288;53.446;-2.266;2024-02-26T14:23:55;2.42;;;1.00;;
73100;SDS011;61288;53.446;-2.266;2024-02-26T14:26:21;1.60;;;0.90;;
73100;SDS011;61288;53.446;-2.266;2024-02-26T14:28:47;2.65;;;1.05;;
73100;SDS011;61288;53.446;-2.266;2024-02-26T14:31:13;4.72;;;0.90;;
73100;SDS011;61288;53.446;-2.266;2024-02-26T14:33:42;2.10;;;1.00;;
73100;SDS011;61288;53.446;-2.266;2024-02-26T14:36:07;1.65;;;0.90;;
73100;SDS011;61288;53.446;-2.266;2024-02-26T14:38:33;3.72;;;1.10;;
73100;SDS011;61288;53.446;-2.266;2024-02-26T14:40:59;2.30;;;0.60;;
73100;SDS011;61288;53.446;-2.266;2024-02-26T14:43:24;1.65;;;1.08;;
73100;SDS011;61288;53.446;-2.266;2024-02-26T14:45:50;2.15;;;0.80;;